Time;durP1;ratioP1;P1;durP2;ratioP2;P2;SDS_P1;SDS_P2;PMS_P1;PMS_P2;Temp;Humidity;BMP_temperature;BMP_pressure;BME280_temperature;BME280_humidity;BME280_pressure;Samples;Min_cycle;Max_cycle;Signal;HPM_P1;HPM_P2
2022/03/27 00:00:50;;;;;;;;;28.25;27.50;;;;;13.79;39.37;102565.84;2442273;28;45203;-82
2022/03/27 00:02:00;;;;;;;;;35.25;28.75;;;;;13.81;39.60;102564.03;2448665;28;45549;-82
2022/03/27 00:03:11;;;;;;;;;37.25;28.75;;;;;13.80;38.97;102567.56;2451749;27;45299;-81
2022/03/27 00:04:21;;;;;;;;;36.50;28.00;;;;;13.81;39.46;102560.53;2450157;27;45192;-81
2022/03/27 00:05:32;;;;;;;;;32.75;28.75;;;;;13.82;39.70;102565.81;2442372;28;45169;-81
2022/03/27 00:06:43;;;;;;;;;39.00;28.75;;;;;13.82;40.11;102562.28;2441974;28;46430;-81
2022/03/27 00:07:53;;;;;;;;;37.50;29.25;;;;;13.82;40.10;102570.22;2444269;28;45425;-81
2022/03/27 00:09:03;;;;;;;;;28.75;24.75;;;;;13.81;39.90;102568.44;2442892;27;46179;-81
2022/03/27 00:10:14;;;;;;;;;33.00;25.50;;;;;13.80;39.77;102572.84;2442072;28;44700;-80
2022/03/27 00:11:24;;;;;;;;;30.75;27.75;;;;;13.79;39.85;102559.69;2451067;27;45462;-79
2022/03/27 00:12:35;;;;;;;;;37.50;30.75;;;;;13.78;39.53;102568.53;2451845;27;45397;-79
2022/03/27 00:13:46;;;;;;;;;38.00;30.75;;;;;13.78;39.61;102564.09;2446347;27;45934;-79
2022/03/27 00:14:57;;;;;;;;;35.50;31.00;;;;;13.74;40.11;102559.75;2442045;28;45317;-79
2022/03/27 00:16:09;;;;;;;;;35.50;31.25;;;;;13.76;40.25;102565.00;2443422;27;46403;-79
2022/03/27 00:17:19;;;;;;;;;43.50;32.75;;;;;13.73;39.92;102565.94;2442129;28;44594;-79
2022/03/27 00:18:29;;;;;;;;;36.75;29.25;;;;;13.77;40.08;102572.06;2441585;28;45319;-80
2022/03/27 00:19:40;;;;;;;;;38.25;31.75;;;;;13.72;40.12;102566.84;2442057;28;45243;-80
2022/03/27 00:20:51;;;;;;;;;37.25;26.00;;;;;13.73;40.24;102571.22;2441843;28;46559;-80
2022/03/27 00:22:02;;;;;;;;;35.75;30.50;;;;;13.68;40.49;102568.66;2441962;28;44769;-80
2022/03/27 00:23:12;;;;;;;;;39.25;27.00;;;;;13.66;40.48;102565.19;2440963;28;46246;-83
2022/03/27 00:24:22;;;;;;;;;39.50;30.50;;;;;13.66;40.64;102564.28;2442381;28;44747;-83
2022/03/27 00:25:32;;;;;;;;;35.50;32.00;;;;;13.63;40.68;102564.38;2442240;28;45363;-82
2022/03/27 00:26:43;;;;;;;;;30.50;26.25;;;;;13.63;40.68;102567.84;2442123;28;45358;-82
2022/03/27 00:27:53;;;;;;;;;36.50;29.75;;;;;13.60;40.60;102562.66;2445887;28;45540;-84
2022/03/27 00:29:04;;;;;;;;;41.50;32.50;;;;;13.60;40.74;102565.28;2450915;28;45393;-84
2022/03/27 00:30:14;;;;;;;;;42.50;32.00;;;;;13.58;41.05;102565.28;2451072;28;45922;-85
2022/03/27 00:31:25;;;;;;;;;37.50;32.25;;;;;13.56;41.15;102571.47;2448996;27;45292;-85
2022/03/27 00:32:35;;;;;;;;;35.75;27.25;;;;;13.55;41.39;102556.53;2441797;28;45307;-82
2022/03/27 00:33:46;;;;;;;;;48.25;33.50;;;;;13.56;41.15;102574.09;2441942;28;45203;-81
2022/03/27 00:34:57;;;;;;;;;40.00;30.75;;;;;13.55;41.07;102575.03;2448506;28;46465;-81
2022/03/27 00:36:10;;;;;;;;;40.50;30.25;;;;;13.52;41.41;102572.44;2448577;27;45219;-82
2022/03/27 00:37:20;;;;;;;;;42.75;32.00;;;;;13.49;40.95;102570.69;2441778;28;45354;-84
2022/03/27 00:38:32;;;;;;;;;39.00;28.75;;;;;13.49;41.58;102579.50;2450644;28;45227;-85
2022/03/27 00:39:43;;;;;;;;;50.75;33.75;;;;;13.45;41.41;102566.38;2447834;28;45357;-84
2022/03/27 00:40:53;;;;;;;;;43.00;32.75;;;;;13.47;41.44;102575.16;2442052;28;45326;-84
2022/03/27 00:42:04;;;;;;;;;32.25;29.50;;;;;13.39;41.08;102562.94;2450604;28;46148;-83
2022/03/27 00:43:14;;;;;;;;;45.25;37.00;;;;;13.40;41.26;102569.09;2442421;28;46799;-83
2022/03/27 00:44:25;;;;;;;;;42.00;36.00;;;;;13.38;40.97;102565.59;2443490;28;45606;-83
2022/03/27 00:45:35;;;;;;;;;44.00;36.75;;;;;13.38;41.25;102571.75;2451728;27;45421;-83
2022/03/27 00:46:46;;;;;;;;;41.00;32.50;;;;;13.39;41.01;102568.22;2447504;27;45400;-83
2022/03/27 00:47:56;;;;;;;;;42.50;33.50;;;;;13.38;41.66;102574.38;2441514;28;44719;-84
2022/03/27 00:49:07;;;;;;;;;40.25;32.50;;;;;13.38;41.84;102571.75;2440941;28;46212;-84
2022/03/27 00:50:17;;;;;;;;;45.75;37.25;;;;;13.38;41.42;102568.25;2443708;28;44752;-84
2022/03/27 00:51:27;;;;;;;;;46.00;37.00;;;;;13.38;41.19;102571.75;2448669;27;45196;-80
2022/03/27 00:52:38;;;;;;;;;41.00;36.25;;;;;13.38;41.48;102560.31;2441863;28;45476;-83
2022/03/27 00:53:48;;;;;;;;;48.25;40.00;;;;;13.35;41.41;102568.28;2441668;28;45253;-83
2022/03/27 00:55:00;;;;;;;;;43.25;38.50;;;;;13.36;41.77;102568.25;2441396;28;45262;-84
2022/03/27 00:56:10;;;;;;;;;40.00;32.75;;;;;13.35;41.62;102560.38;2441536;28;46227;-84
2022/03/27 00:57:21;;;;;;;;;44.50;37.25;;;;;13.35;41.37;102563.88;2441679;28;45224;-84
2022/03/27 00:58:31;;;;;;;;;53.25;38.00;;;;;13.34;41.56;102558.59;2450389;28;46616;-84
2022/03/27 00:59:42;;;;;;;;;46.50;38.50;;;;;13.33;41.85;102556.88;2441007;28;44686;-85
2022/03/27 01:01:13;;;;;;;;;40.00;34.50;;;;;13.33;42.15;102564.81;2446208;28;45699;-84
2022/03/27 01:02:26;;;;;;;;;43.50;34.50;;;;;13.33;41.54;102563.03;2441814;28;45334;-85
2022/03/27 01:03:37;;;;;;;;;50.50;40.00;;;;;13.30;42.04;102560.44;2441145;28;45338;-85
2022/03/27 01:04:47;;;;;;;;;42.50;34.50;;;;;13.32;41.97;102558.63;2441562;28;44756;-84
2022/03/27 01:05:58;;;;;;;;;53.75;38.75;;;;;13.32;41.77;102557.75;2441526;28;46257;-84
2022/03/27 01:07:08;;;;;;;;;48.25;36.25;;;;;13.31;41.57;102563.97;2441827;28;44573;-83
2022/03/27 01:09:53;;;;;;;;;45.00;36.50;;;;;13.33;41.83;102563.03;2443262;28;45358;-83
2022/03/27 01:11:16;;;;;;;;;42.75;29.25;;;;;13.33;41.57;102560.41;2443517;28;46396;-84
2022/03/27 01:12:38;;;;;;;;;45.50;37.25;;;;;13.33;41.77;102559.53;2440775;28;44747;-84
2022/03/27 01:13:52;;;;;;;;;42.25;35.75;;;;;13.32;41.76;102553.34;2447547;28;45242;-85
2022/03/27 01:15:03;;;;;;;;;50.25;37.75;;;;;13.33;41.59;102563.03;2441698;28;45236;-85
2022/03/27 01:16:17;;;;;;;;;38.25;36.75;;;;;13.31;41.94;102556.88;2453005;27;47500;-85
2022/03/27 01:17:28;;;;;;;;;51.25;37.50;;;;;13.31;41.58;102553.41;2441109;28;44691;-85
2022/03/27 01:18:39;;;;;;;;;48.00;36.75;;;;;13.32;41.42;102556.00;2441259;28;45318;-81
2022/03/27 01:19:54;;;;;;;;;42.50;32.75;;;;;13.34;41.90;102550.69;2441519;28;44556;-81
2022/03/27 01:21:07;;;;;;;;;43.00;35.25;;;;;13.34;41.90;102553.31;2441231;28;45471;-80
2022/03/27 01:22:19;;;;;;;;;52.00;38.50;;;;;13.34;41.88;102553.31;2441813;28;45251;-80
2022/03/27 01:23:29;;;;;;;;;49.00;37.50;;;;;13.32;41.66;102555.13;2447400;28;45268;-80
2022/03/27 01:24:40;;;;;;;;;43.75;35.50;;;;;13.34;41.81;102553.31;2448582;27;45219;-80
2022/03/27 01:25:50;;;;;;;;;48.25;36.50;;;;;13.34;42.38;102545.41;2441374;28;45241;-80
2022/03/27 01:27:01;;;;;;;;;44.00;34.25;;;;;13.34;42.47;102553.31;2441821;27;45442;-80
2022/03/27 01:28:14;;;;;;;;;43.25;33.75;;;;;13.38;42.37;102555.03;2443763;28;46226;-80
2022/03/27 01:29:24;;;;;;;;;40.75;33.75;;;;;13.35;42.31;102547.16;2441604;28;45254;-83
2022/03/27 01:30:35;;;;;;;;;55.25;37.00;;;;;13.37;42.06;102545.34;2441258;28;46234;-83
2022/03/27 01:31:47;;;;;;;;;45.50;37.75;;;;;13.34;42.08;102543.63;2441495;28;45500;-82
2022/03/27 01:32:58;;;;;;;;;53.00;37.75;;;;;13.38;42.63;102549.75;2440967;28;45336;-83
2022/03/27 01:34:08;;;;;;;;;45.00;37.50;;;;;13.38;42.68;102541.84;2441506;28;45227;-83
2022/03/27 01:35:19;;;;;;;;;44.25;34.75;;;;;13.38;42.18;102545.31;2441390;28;45400;-83
2022/03/27 01:36:34;;;;;;;;;49.50;37.75;;;;;13.36;42.21;102530.41;2441674;28;45304;-83
2022/03/27 01:37:48;;;;;;;;;49.00;36.50;;;;;13.38;41.89;102541.84;2441443;28;45319;-83
2022/03/27 01:38:58;;;;;;;;;45.50;33.75;;;;;13.35;42.10;102539.22;2441375;28;44599;-83
2022/03/27 01:40:09;;;;;;;;;52.00;38.50;;;;;13.34;42.03;102546.28;2441241;28;45277;-83
2022/03/27 01:41:20;;;;;;;;;48.50;38.50;;;;;13.31;42.17;102538.41;2441371;28;45192;-83
2022/03/27 01:42:30;;;;;;;;;54.75;39.25;;;;;13.33;42.42;102534.00;2441138;28;47242;-83
2022/03/27 01:43:41;;;;;;;;;47.00;37.00;;;;;13.34;42.29;102538.34;2447804;28;45729;-85
2022/03/27 01:44:51;;;;;;;;;51.00;39.00;;;;;13.35;41.95;102533.94;2440925;28;45192;-84
2022/03/27 01:46:02;;;;;;;;;57.50;43.00;;;;;13.34;42.18;102524.28;2445776;28;45436;-84
2022/03/27 01:47:13;;;;;;;;;37.25;28.00;;;;;13.36;42.09;102526.00;2440753;28;45423;-83
2022/03/27 01:48:23;;;;;;;;;54.75;37.75;;;;;13.36;42.42;102525.13;2442779;28;44647;-82
2022/03/27 01:49:34;;;;;;;;;51.50;42.00;;;;;13.35;42.17;102526.91;2451211;27;46128;-88
2022/03/27 01:50:59;;;;;;;;;37.25;31.50;;;;;13.33;42.75;102520.78;2450999;27;45337;-87
2022/03/27 01:52:10;;;;;;;;;44.75;38.00;;;;;13.35;42.79;102524.28;2451006;28;46550;-84
2022/03/27 01:53:20;;;;;;;;;50.00;38.25;;;;;13.33;42.97;102534.00;2444630;27;45449;-83
2022/03/27 01:54:31;;;;;;;;;51.50;37.25;;;;;13.31;42.68;102517.28;2450053;28;45330;-83
2022/03/27 01:55:41;;;;;;;;;47.75;38.75;;;;;13.32;43.05;102523.44;2448050;27;45440;-83
2022/03/27 01:56:51;;;;;;;;;43.00;36.25;;;;;13.30;42.58;102525.22;2450215;27;45330;-83
2022/03/27 01:58:02;;;;;;;;;50.50;34.75;;;;;13.27;42.78;102513.81;2442162;27;44724;-83
2022/03/27 01:59:13;;;;;;;;;53.50;40.75;;;;;13.26;42.92;102522.63;2441290;28;46952;-83
2022/03/27 02:00:23;;;;;;;;;44.00;40.00;;;;;13.24;42.70;102521.78;2440784;28;45357;-83
2022/03/27 02:01:35;;;;;;;;;51.50;40.50;;;;;13.25;43.09;102533.22;2449401;28;45346;-83
2022/03/27 02:02:45;;;;;;;;;47.75;37.25;;;;;13.22;43.38;102520.94;2445597;28;45407;-82
2022/03/27 02:03:55;;;;;;;;;50.00;38.75;;;;;13.19;43.18;102523.63;2441044;28;45327;-83
2022/03/27 02:05:06;;;;;;;;;45.25;37.50;;;;;13.19;42.78;102525.38;2441470;28;45210;-82
2022/03/27 02:06:17;;;;;;;;;52.00;39.50;;;;;13.19;42.96;102522.75;2444081;28;45500;-83
2022/03/27 02:07:27;;;;;;;;;52.25;38.25;;;;;13.15;42.92;102521.94;2450366;27;45230;-84
2022/03/27 02:08:38;;;;;;;;;47.00;39.25;;;;;13.18;43.08;102526.28;2450311;27;46365;-83
2022/03/27 02:09:49;;;;;;;;;42.25;32.75;;;;;13.14;43.65;102520.19;2448150;27;45274;-83
2022/03/27 02:11:00;;;;;;;;;57.00;39.00;;;;;13.15;42.82;102527.22;2447588;28;46510;-83
2022/03/27 02:12:12;;;;;;;;;49.25;36.50;;;;;13.13;43.27;102523.72;2441784;28;45181;-83
2022/03/27 02:13:22;;;;;;;;;52.25;38.50;;;;;13.12;43.33;102527.25;2446044;28;46602;-83
2022/03/27 02:14:33;;;;;;;;;52.50;37.00;;;;;13.11;42.94;102522.88;2448652;28;45300;-85
2022/03/27 02:15:43;;;;;;;;;55.50;40.00;;;;;13.11;43.34;102522.88;2441246;27;45442;-85
2022/03/27 02:16:53;;;;;;;;;44.00;38.75;;;;;13.07;43.73;102516.75;2445486;27;45462;-86
2022/03/27 02:18:04;;;;;;;;;47.50;37.25;;;;;13.07;43.82;102514.13;2441110;28;45339;-86
2022/03/27 02:19:14;;;;;;;;;44.50;35.75;;;;;13.07;43.30;102524.69;2441205;28;45227;-85
2022/03/27 02:20:25;;;;;;;;;49.50;38.00;;;;;13.04;43.74;102520.31;2440805;28;46590;-84
2022/03/27 02:21:36;;;;;;;;;43.50;39.50;;;;;13.04;43.72;102522.97;2441067;28;45452;-87
2022/03/27 02:22:46;;;;;;;;;55.25;39.25;;;;;13.02;44.17;102514.19;2441062;28;45420;-87
2022/03/27 02:23:56;;;;;;;;;49.00;41.00;;;;;12.99;44.63;102521.31;2441279;28;45336;-89
2022/03/27 02:25:07;;;;;;;;;50.00;37.25;;;;;12.99;44.36;102524.78;2440988;28;46161;-90
2022/03/27 02:26:18;;;;;;;;;45.50;38.25;;;;;12.97;44.27;102523.06;2441976;28;45363;-90
2022/03/27 02:27:28;;;;;;;;;48.00;38.50;;;;;12.96;43.81;102518.69;2441140;28;45227;-92
2022/03/27 02:28:40;;;;;;;;;42.75;37.75;;;;;12.93;44.01;102528.41;2441400;28;45410;-89
2022/03/27 02:29:50;;;;;;;;;49.75;39.50;;;;;12.96;43.99;102531.91;2449173;28;45339;-90
2022/03/27 02:31:01;;;;;;;;;46.50;37.75;;;;;12.94;44.49;102527.50;2445896;27;45305;-89
2022/03/27 02:32:11;;;;;;;;;48.75;38.50;;;;;12.94;44.15;102521.34;2442265;28;45224;-88
2022/03/27 02:33:22;;;;;;;;;47.50;38.75;;;;;12.91;44.28;102526.69;2452471;27;44621;-88
2022/03/27 02:34:32;;;;;;;;;48.75;38.50;;;;;12.90;44.10;102523.16;2451668;28;47089;-89
2022/03/27 02:35:43;;;;;;;;;48.00;36.75;;;;;12.89;44.27;102536.41;2454229;27;45586;-88
2022/03/27 02:36:53;;;;;;;;;43.75;34.75;;;;;12.86;44.23;102536.44;2457012;27;45487;-85
2022/03/27 02:38:05;;;;;;;;;52.00;37.75;;;;;12.87;44.38;102532.88;2442888;28;45315;-84
2022/03/27 02:39:16;;;;;;;;;51.50;41.00;;;;;12.83;44.58;102525.03;2450838;28;46295;-86
2022/03/27 02:40:26;;;;;;;;;55.50;41.50;;;;;12.84;44.31;102528.50;2461678;27;44809;-85
2022/03/27 02:41:36;;;;;;;;;51.00;39.50;;;;;12.83;44.23;102532.94;2449716;27;45448;-86
2022/03/27 02:42:47;;;;;;;;;51.50;38.50;;;;;12.79;44.20;102525.94;2447972;28;45382;-83
2022/03/27 02:43:58;;;;;;;;;55.50;38.50;;;;;12.80;44.69;102530.34;2447245;28;47482;-83
2022/03/27 02:45:09;;;;;;;;;45.75;37.75;;;;;12.82;44.71;102540.84;2442257;28;45314;-82
2022/03/27 02:46:20;;;;;;;;;51.50;39.50;;;;;12.77;44.73;102532.13;2447130;28;45232;-82
2022/03/27 02:47:30;;;;;;;;;48.75;37.25;;;;;12.77;44.92;102527.72;2452349;28;44580;-83
2022/03/27 02:48:40;;;;;;;;;50.50;40.50;;;;;12.75;45.06;102526.00;2452295;27;45492;-83
2022/03/27 02:49:51;;;;;;;;;46.50;38.25;;;;;12.73;45.11;102520.75;2452552;27;45221;-83
2022/03/27 02:51:01;;;;;;;;;56.75;41.25;;;;;12.71;44.86;102519.91;2452341;27;45260;-83
2022/03/27 02:52:11;;;;;;;;;51.25;41.25;;;;;12.69;44.66;102521.72;2452560;27;45239;-83
2022/03/27 02:53:22;;;;;;;;;45.50;37.75;;;;;12.68;44.97;102519.94;2446442;28;47123;-83
2022/03/27 02:54:32;;;;;;;;;52.75;41.00;;;;;12.67;45.19;102520.81;2442116;28;45453;-83
2022/03/27 02:55:43;;;;;;;;;55.50;43.75;;;;;12.65;45.26;102517.34;2442217;28;46334;-88
2022/03/27 02:56:53;;;;;;;;;57.25;42.00;;;;;12.63;44.92;102512.09;2443699;28;45428;-86
2022/03/27 02:58:04;;;;;;;;;47.25;39.50;;;;;12.62;44.63;102518.25;2442569;28;45422;-86
2022/03/27 02:59:16;;;;;;;;;42.25;34.50;;;;;12.61;44.64;102513.88;2442485;28;45386;-87
2022/03/27 03:00:26;;;;;;;;;54.50;41.00;;;;;12.63;44.66;102524.41;2442557;28;45621;-86
2022/03/27 03:01:37;;;;;;;;;56.25;38.00;;;;;12.63;45.02;102519.13;2450352;28;45322;-85
2022/03/27 03:02:48;;;;;;;;;49.00;40.50;;;;;12.66;45.17;102524.38;2450564;28;47005;-91
2022/03/27 03:03:59;;;;;;;;;52.25;41.00;;;;;12.64;45.22;102521.78;2443404;28;45292;-92
2022/03/27 03:05:10;;;;;;;;;58.50;40.50;;;;;12.65;44.94;102517.34;2444821;28;46955;-86
2022/03/27 03:06:21;;;;;;;;;55.25;42.25;;;;;12.63;45.13;102520.00;2456896;27;44559;-90
2022/03/27 03:07:33;;;;;;;;;53.00;41.25;;;;;12.65;45.00;102522.63;2451727;28;47490;-90
2022/03/27 03:08:44;;;;;;;;;50.00;39.25;;;;;12.63;45.14;102520.00;2451994;28;45463;-91
2022/03/27 03:09:54;;;;;;;;;48.50;34.50;;;;;12.66;45.38;102527.00;2451489;28;47170;-91
2022/03/27 03:11:05;;;;;;;;;53.75;41.00;;;;;12.65;45.31;102525.25;2451027;28;45243;-84
2022/03/27 03:12:16;;;;;;;;;49.75;38.25;;;;;12.64;45.30;102527.03;2451870;27;45414;-86
2022/03/27 03:13:26;;;;;;;;;53.25;41.75;;;;;12.65;45.36;102522.63;2448230;28;44763;-86
2022/03/27 03:14:37;;;;;;;;;51.50;40.75;;;;;12.62;45.29;102523.53;2445805;27;46276;-85
2022/03/27 03:15:47;;;;;;;;;49.00;38.75;;;;;12.62;45.47;102522.69;2444406;27;45401;-86
2022/03/27 03:16:58;;;;;;;;;56.25;44.25;;;;;12.62;45.42;102525.31;2459536;27;46367;-87
2022/03/27 03:18:09;;;;;;;;;47.50;36.00;;;;;12.63;44.94;102533.19;2442375;28;45169;-87
2022/03/27 03:19:19;;;;;;;;;56.75;41.75;;;;;12.62;45.20;102530.59;2448902;28;45993;-86
2022/03/27 03:20:30;;;;;;;;;52.00;41.75;;;;;12.58;45.36;102520.06;2451636;28;45257;-86
2022/03/27 03:21:40;;;;;;;;;52.25;41.50;;;;;12.60;45.32;102523.56;2446180;28;45406;-87
2022/03/27 03:22:51;;;;;;;;;51.25;40.25;;;;;12.62;45.33;102522.69;2447597;28;45152;-86
2022/03/27 03:24:01;;;;;;;;;48.50;38.50;;;;;12.58;45.40;102517.44;2452159;27;45334;-86
2022/03/27 03:25:13;;;;;;;;;56.00;44.00;;;;;12.63;45.07;102521.78;2452283;27;45211;-86
2022/03/27 03:26:23;;;;;;;;;57.25;41.75;;;;;12.63;45.28;102524.41;2448301;27;46293;-85
2022/03/27 03:27:34;;;;;;;;;52.75;41.75;;;;;12.63;45.41;102517.38;2442371;28;45342;-84
2022/03/27 03:28:44;;;;;;;;;51.25;38.75;;;;;12.64;45.47;102529.69;2442334;28;46533;-84
2022/03/27 03:29:54;;;;;;;;;54.75;40.50;;;;;12.63;45.29;102527.03;2450027;27;46057;-83
2022/03/27 03:31:07;;;;;;;;;49.00;37.50;;;;;12.62;45.94;102525.31;2451233;27;46433;-83
2022/03/27 03:32:18;;;;;;;;;55.25;40.25;;;;;12.63;45.70;102527.91;2451977;27;45222;-83
2022/03/27 03:33:28;;;;;;;;;48.50;35.75;;;;;12.62;45.62;102522.69;2442015;28;45586;-86
2022/03/27 03:34:38;;;;;;;;;51.50;41.00;;;;;12.60;46.05;102520.03;2448757;28;45141;-86
2022/03/27 03:35:49;;;;;;;;;32.75;26.00;;;;;12.58;45.88;102520.06;2451861;27;45200;-85
2022/03/27 03:36:59;;;;;;;;;51.25;41.00;;;;;12.58;45.87;102524.47;2452351;27;44593;-85
2022/03/27 03:38:09;;;;;;;;;51.50;40.00;;;;;12.55;46.12;102522.75;2451934;27;45296;-85
2022/03/27 03:39:20;;;;;;;;;47.75;36.25;;;;;12.53;46.01;102531.56;2452165;27;45151;-85
2022/03/27 03:40:30;;;;;;;;;49.00;40.75;;;;;12.52;46.11;102525.41;2450584;27;45432;-86
2022/03/27 03:41:41;;;;;;;;;55.25;40.75;;;;;12.50;46.21;102527.19;2442246;28;44759;-89
2022/03/27 03:42:52;;;;;;;;;54.75;40.50;;;;;12.47;46.29;102520.19;2441567;28;45299;-89
2022/03/27 03:44:02;;;;;;;;;53.50;38.50;;;;;12.44;46.08;102524.66;2441035;28;45283;-90
2022/03/27 03:45:13;;;;;;;;;46.25;38.75;;;;;12.44;46.42;102537.84;2441191;28;46221;-89
2022/03/27 03:46:24;;;;;;;;;56.00;40.75;;;;;12.41;46.41;102528.19;2434370;28;44697;-89
2022/03/27 03:47:35;;;;;;;;;51.00;38.50;;;;;12.38;46.63;102531.75;2438003;28;48344;-89
2022/03/27 03:48:45;;;;;;;;;54.00;41.25;;;;;12.37;46.55;102535.25;2444230;28;45158;-89
2022/03/27 03:49:55;;;;;;;;;53.00;36.75;;;;;12.34;46.44;102531.78;2443976;28;46994;-89
2022/03/27 03:51:06;;;;;;;;;50.50;39.75;;;;;12.32;46.31;102531.78;2448717;28;45267;-88
2022/03/27 03:52:17;;;;;;;;;52.25;38.50;;;;;12.31;46.27;102531.81;2451269;28;47840;-88
2022/03/27 03:53:28;;;;;;;;;52.75;42.25;;;;;12.28;46.47;102530.09;2443949;28;44740;-89
2022/03/27 03:54:39;;;;;;;;;48.00;39.50;;;;;12.27;46.60;102537.13;2445461;28;47272;-89
2022/03/27 03:55:49;;;;;;;;;49.75;37.75;;;;;12.25;46.73;102536.28;2444337;27;44797;-86
2022/03/27 03:57:02;;;;;;;;;52.25;38.00;;;;;12.25;46.84;102532.75;2448356;28;46396;-86
2022/03/27 03:58:12;;;;;;;;;51.00;38.75;;;;;12.21;46.95;102534.56;2441608;28;45271;-86
2022/03/27 03:59:23;;;;;;;;;49.00;37.75;;;;;12.16;47.13;102528.47;2442248;28;45574;-86
2022/03/27 04:00:33;;;;;;;;;51.00;39.50;;;;;12.15;46.92;102530.22;2442041;28;45461;-90
2022/03/27 04:01:44;;;;;;;;;46.50;35.25;;;;;12.15;47.52;102532.88;2450054;28;47850;-87
2022/03/27 04:02:54;;;;;;;;;49.25;37.50;;;;;12.12;47.00;102527.59;2450784;28;45244;-87
2022/03/27 04:04:05;;;;;;;;;46.25;37.50;;;;;12.12;47.19;102535.50;2449927;28;46394;-85
2022/03/27 04:05:16;;;;;;;;;47.25;36.75;;;;;12.10;47.44;102531.16;2445833;28;45302;-85
2022/03/27 04:06:27;;;;;;;;;46.75;36.75;;;;;12.05;47.14;102528.53;2450908;27;46086;-88
2022/03/27 04:07:37;;;;;;;;;50.50;38.25;;;;;12.05;47.02;102525.91;2442251;28;45355;-90
2022/03/27 04:08:48;;;;;;;;;49.75;38.50;;;;;12.04;47.26;102532.09;2448243;28;47271;-92
2022/03/27 04:09:58;;;;;;;;;48.25;35.75;;;;;12.01;47.23;102529.47;2444123;28;45252;-90
2022/03/27 04:11:16;;;;;;;;;51.00;37.25;;;;;12.00;47.50;102519.84;2446320;28;46382;-89
2022/03/27 04:12:26;;;;;;;;;46.50;36.50;;;;;11.97;47.54;102525.13;2452035;27;44778;-88
2022/03/27 04:13:36;;;;;;;;;50.25;38.00;;;;;11.97;47.51;102530.41;2450634;28;47072;-89
2022/03/27 04:14:47;;;;;;;;;45.00;35.25;;;;;11.95;47.61;102527.75;2447249;28;45385;-89
2022/03/27 04:15:57;;;;;;;;;40.25;34.00;;;;;11.95;47.79;102525.13;2449097;27;46258;-85
2022/03/27 04:17:07;;;;;;;;;43.75;34.50;;;;;11.94;47.70;102536.56;2443186;28;45273;-85
2022/03/27 04:18:18;;;;;;;;;49.50;38.00;;;;;11.91;47.66;102534.84;2451486;27;45248;-86
2022/03/27 04:19:29;;;;;;;;;45.25;36.00;;;;;11.91;47.72;102532.19;2444657;27;45224;-86
2022/03/27 04:20:41;;;;;;;;;46.50;35.00;;;;;11.92;47.65;102541.88;2441851;28;45645;-85
2022/03/27 04:21:52;;;;;;;;;44.00;36.75;;;;;11.91;47.68;102536.59;2441207;28;45239;-85
2022/03/27 04:23:02;;;;;;;;;43.25;34.75;;;;;11.88;47.78;102537.50;2441385;28;45407;-86
2022/03/27 04:24:13;;;;;;;;;44.25;35.25;;;;;11.89;47.94;102538.38;2442105;28;44655;-90
2022/03/27 04:25:23;;;;;;;;;48.25;37.00;;;;;11.87;47.99;102540.16;2441886;28;45283;-86
2022/03/27 04:26:34;;;;;;;;;40.50;33.75;;;;;11.86;48.05;102539.28;2445423;28;45218;-86
2022/03/27 04:27:45;;;;;;;;;44.75;34.50;;;;;11.86;48.09;102534.00;2441403;28;45892;-83
2022/03/27 04:28:55;;;;;;;;;47.75;35.75;;;;;11.86;48.13;102538.41;2441943;28;45417;-85
2022/03/27 04:30:08;;;;;;;;;44.25;34.50;;;;;11.84;47.74;102537.53;2442113;28;45380;-85
2022/03/27 04:31:18;;;;;;;;;35.00;32.00;;;;;11.84;48.13;102541.06;2441880;28;45261;-86
2022/03/27 04:32:29;;;;;;;;;48.50;34.50;;;;;11.83;47.90;102547.19;2441486;28;46352;-86
2022/03/27 04:33:40;;;;;;;;;43.00;34.50;;;;;11.83;48.23;102544.56;2441311;28;45243;-85
2022/03/27 04:34:51;;;;;;;;;43.25;34.75;;;;;11.78;48.04;102539.34;2441127;28;45313;-86
2022/03/27 04:36:05;;;;;;;;;45.00;34.75;;;;;11.78;47.85;102536.69;2446708;28;45435;-86
2022/03/27 04:37:15;;;;;;;;;48.25;36.75;;;;;11.76;48.21;102542.88;2443494;27;45414;-86
2022/03/27 04:38:25;;;;;;;;;42.50;33.00;;;;;11.76;48.33;102542.88;2441933;28;45216;-86
2022/03/27 04:39:36;;;;;;;;;45.00;35.50;;;;;11.76;48.11;102548.13;2451242;28;45254;-81
2022/03/27 04:40:46;;;;;;;;;46.25;34.50;;;;;11.76;48.13;102542.88;2451760;27;45358;-84
2022/03/27 04:41:57;;;;;;;;;47.75;36.75;;;;;11.75;48.23;102539.38;2445746;27;46453;-84
2022/03/27 04:43:07;;;;;;;;;41.25;35.00;;;;;11.73;48.34;102540.28;2441869;28;44637;-84
2022/03/27 04:44:17;;;;;;;;;47.00;38.00;;;;;11.71;48.63;102545.56;2441859;28;45311;-83
2022/03/27 04:45:28;;;;;;;;;44.50;35.25;;;;;11.70;48.71;102538.56;2441822;28;45181;-84
2022/03/27 04:46:38;;;;;;;;;42.00;35.00;;;;;11.72;48.25;102544.69;2441906;28;45450;-85
2022/03/27 04:47:49;;;;;;;;;51.50;36.75;;;;;11.70;48.68;102546.47;2441669;28;45203;-84
2022/03/27 04:48:59;;;;;;;;;45.75;34.25;;;;;11.67;48.39;102544.72;2441652;28;45386;-84
2022/03/27 04:50:10;;;;;;;;;47.75;36.00;;;;;11.67;48.54;102550.00;2441768;28;45286;-83
2022/03/27 04:51:21;;;;;;;;;45.00;35.25;;;;;11.67;48.61;102557.00;2442235;28;47354;-84
2022/03/27 04:52:31;;;;;;;;;44.00;34.50;;;;;11.63;48.65;102548.25;2447686;28;44814;-84
2022/03/27 04:53:42;;;;;;;;;47.50;34.75;;;;;11.66;48.44;102555.25;2442919;28;46133;-85
2022/03/27 04:54:53;;;;;;;;;49.75;35.75;;;;;11.63;48.42;102548.25;2441771;28;45425;-83
2022/03/27 04:56:05;;;;;;;;;43.00;34.25;;;;;11.63;48.53;102553.50;2440857;28;45467;-84
2022/03/27 04:57:16;;;;;;;;;47.25;37.25;;;;;11.62;48.60;102546.50;2441636;28;44699;-83
2022/03/27 04:58:27;;;;;;;;;48.25;35.75;;;;;11.62;48.64;102548.28;2441465;28;45527;-83
2022/03/27 04:59:37;;;;;;;;;39.25;33.25;;;;;11.61;48.78;102562.31;2441795;28;45244;-83
2022/03/27 05:00:47;;;;;;;;;46.75;35.75;;;;;11.61;49.02;102557.03;2441486;28;45518;-83
2022/03/27 05:01:58;;;;;;;;;47.00;36.00;;;;;11.57;48.90;102549.19;2442083;28;45414;-84
2022/03/27 05:03:09;;;;;;;;;39.75;33.25;;;;;11.56;48.73;102551.81;2441332;28;45762;-83
2022/03/27 05:04:19;;;;;;;;;47.00;34.75;;;;;11.57;49.01;102556.22;2448623;28;45263;-84
2022/03/27 05:05:30;;;;;;;;;48.75;39.00;;;;;11.55;49.10;102556.22;2447385;27;45255;-85
2022/03/27 05:06:40;;;;;;;;;49.25;34.75;;;;;11.55;49.37;102560.63;2441928;28;44717;-85
2022/03/27 05:07:50;;;;;;;;;44.00;34.00;;;;;11.52;48.97;102558.88;2440478;28;47194;-85
2022/03/27 05:09:01;;;;;;;;;44.50;35.00;;;;;11.51;49.20;102557.13;2441197;28;44673;-81
2022/03/27 05:10:13;;;;;;;;;36.50;32.25;;;;;11.49;49.15;102551.00;2441499;28;46210;-82
2022/03/27 05:11:25;;;;;;;;;48.00;36.00;;;;;11.48;49.25;102565.06;2441769;28;45488;-81
2022/03/27 05:12:36;;;;;;;;;43.00;35.75;;;;;11.47;49.26;102563.31;2441337;28;46279;-81
2022/03/27 05:13:46;;;;;;;;;44.75;35.00;;;;;11.46;49.12;102566.81;2445074;28;45353;-83
2022/03/27 05:14:57;;;;;;;;;44.25;34.00;;;;;11.44;49.25;102565.94;2441614;28;46368;-82
2022/03/27 05:16:08;;;;;;;;;43.75;35.00;;;;;11.45;49.39;102570.34;2449219;27;45325;-81
2022/03/27 05:17:18;;;;;;;;;42.00;32.25;;;;;11.43;49.36;102561.59;2450409;27;45255;-82
2022/03/27 05:18:29;;;;;;;;;46.75;37.25;;;;;11.40;49.35;102562.47;2441546;28;44623;-82
2022/03/27 05:19:39;;;;;;;;;45.25;35.75;;;;;11.39;49.46;102571.25;2441564;28;45251;-82
2022/03/27 05:20:50;;;;;;;;;44.00;35.25;;;;;11.40;49.44;102573.00;2441486;28;44641;-82
2022/03/27 05:22:00;;;;;;;;;44.25;34.75;;;;;11.40;49.68;102574.78;2441655;28;47400;-82
2022/03/27 05:23:11;;;;;;;;;32.25;30.75;;;;;11.37;49.57;102573.03;2441163;28;45259;-81
2022/03/27 05:24:21;;;;;;;;;44.50;35.50;;;;;11.37;49.46;102573.03;2447122;28;47040;-82